Time;durP1;ratioP1;P1;durP2;ratioP2;P2;SDS_P1;SDS_P2;PMS_P1;PMS_P2;Temp;Humidity;BMP_temperature;BMP_pressure;BME280_temperature;BME280_humidity;BME280_pressure;Samples;Min_cycle;Max_cycle;Signal;HPM_P1;HPM_P2
2021/06/13 00:00:11;;;;;;;15.48;14.38;;;20.60;59.60;;;;;;5197970;28;20057;-75
2021/06/13 00:02:44;;;;;;;15.88;14.60;;;20.60;60.00;;;;;;5198615;28;20065;-74
2021/06/13 00:05:17;;;;;;;15.18;13.98;;;20.60;59.70;;;;;;5198295;28;20695;-75
2021/06/13 00:07:49;;;;;;;15.30;14.00;;;20.60;59.90;;;;;;5198955;28;20124;-75
2021/06/13 00:10:21;;;;;;;15.20;14.05;;;20.50;60.30;;;;;;5198253;28;20117;-76
2021/06/13 00:12:53;;;;;;;15.30;14.10;;;20.50;60.30;;;;;;5198316;28;20073;-75
2021/06/13 00:15:25;;;;;;;15.15;14.05;;;20.50;60.30;;;;;;5198866;28;20516;-74
2021/06/13 00:17:58;;;;;;;16.13;14.88;;;20.50;60.40;;;;;;5198698;28;20053;-74
2021/06/13 00:20:30;;;;;;;16.38;14.88;;;20.50;60.50;;;;;;5197031;28;20108;-75
2021/06/13 00:23:02;;;;;;;15.65;14.38;;;20.50;60.60;;;;;;5197961;28;20103;-75
2021/06/13 00:25:34;;;;;;;15.77;14.57;;;20.50;60.70;;;;;;5197353;28;20073;-75
2021/06/13 00:28:07;;;;;;;16.08;14.88;;;20.40;62.00;;;;;;5189948;28;20076;-73
2021/06/13 00:30:39;;;;;;;15.60;14.45;;;20.40;61.70;;;;;;5197470;28;20072;-74
2021/06/13 00:33:11;;;;;;;16.08;14.88;;;20.30;62.50;;;;;;5197795;28;20140;-74
2021/06/13 00:35:43;;;;;;;15.85;14.55;;;20.20;63.30;;;;;;5197248;28;20044;-74
2021/06/13 00:38:15;;;;;;;15.98;14.77;;;20.20;62.50;;;;;;5197951;28;20138;-75
2021/06/13 00:40:47;;;;;;;14.90;13.80;;;20.20;62.10;;;;;;5198187;28;20049;-75
2021/06/13 00:43:19;;;;;;;15.45;14.35;;;20.20;62.30;;;;;;5196483;28;20053;-75
2021/06/13 00:45:52;;;;;;;15.70;14.38;;;20.20;62.00;;;;;;5195068;28;20053;-74
2021/06/13 00:48:24;;;;;;;16.65;15.07;;;20.20;62.20;;;;;;5211911;28;20053;-74
2021/06/13 00:50:57;;;;;;;15.52;14.20;;;20.20;62.40;;;;;;5198111;28;20115;-74
2021/06/13 00:53:30;;;;;;;15.55;14.35;;;20.10;63.60;;;;;;5196638;28;20504;-75
2021/06/13 00:56:08;;;;;;;15.73;14.63;;;20.10;62.90;;;;;;5196843;28;20509;-73
2021/06/13 00:58:42;;;;;;;15.75;14.55;;;20.10;62.10;;;;;;5198048;28;20401;-73
2021/06/13 01:01:14;;;;;;;16.55;15.35;;;20.00;62.10;;;;;;5195048;28;20754;-73
2021/06/13 01:03:48;;;;;;;16.25;15.05;;;20.00;61.80;;;;;;5196448;28;20049;-74
2021/06/13 01:06:46;;;;;;;16.40;15.20;;;19.90;62.70;;;;;;5197959;28;20056;-75
2021/06/13 01:09:24;;;;;;;16.30;15.10;;;19.90;63.90;;;;;;5192931;28;20480;-76
2021/06/13 01:12:08;;;;;;;16.23;15.02;;;19.90;64.90;;;;;;5195291;28;20077;-74
2021/06/13 01:14:49;;;;;;;15.70;14.60;;;19.80;64.00;;;;;;5197500;28;20072;-74
2021/06/13 01:17:32;;;;;;;15.98;14.73;;;19.80;63.90;;;;;;5195418;28;20104;-75
2021/06/13 01:20:17;;;;;;;15.77;14.55;;;19.80;64.20;;;;;;5179239;28;20084;-73
2021/06/13 01:23:01;;;;;;;15.80;14.60;;;19.80;65.10;;;;;;5197140;28;20095;-75
2021/06/13 01:25:36;;;;;;;16.23;14.90;;;19.80;65.20;;;;;;5194494;28;20084;-75
2021/06/13 01:28:26;;;;;;;16.05;14.75;;;19.70;66.60;;;;;;5196537;28;20057;-75
2021/06/13 01:31:01;;;;;;;16.10;14.82;;;19.60;66.10;;;;;;5188791;28;20826;-74
2021/06/13 01:33:35;;;;;;;15.73;14.45;;;19.60;66.40;;;;;;5197551;28;20073;-74
2021/06/13 01:36:09;;;;;;;15.82;14.73;;;19.60;66.10;;;;;;5206129;28;20042;-75
2021/06/13 01:38:44;;;;;;;16.27;15.07;;;19.60;66.30;;;;;;5195404;28;20041;-76
2021/06/13 01:41:24;;;;;;;16.55;15.25;;;19.60;66.80;;;;;;5193607;28;20129;-75
2021/06/13 01:43:58;;;;;;;16.25;15.05;;;19.60;66.70;;;;;;5179081;28;20059;-75
2021/06/13 01:46:35;;;;;;;16.45;15.02;;;19.50;69.10;;;;;;5186743;28;20684;-75
2021/06/13 01:49:08;;;;;;;16.05;14.85;;;19.40;67.80;;;;;;5210880;28;20136;-74
2021/06/13 01:51:42;;;;;;;16.48;15.25;;;19.40;68.00;;;;;;5194577;28;20191;-75
2021/06/13 01:54:17;;;;;;;16.17;14.98;;;19.40;68.40;;;;;;5188267;28;20046;-75
2021/06/13 01:56:52;;;;;;;16.30;15.10;;;19.40;68.70;;;;;;5196891;28;20037;-75
2021/06/13 01:59:34;;;;;;;16.60;15.30;;;19.40;68.20;;;;;;5195421;28;20052;-75
2021/06/13 02:02:10;;;;;;;16.88;15.60;;;19.40;68.00;;;;;;5193983;28;20042;-75
2021/06/13 02:04:46;;;;;;;16.38;15.18;;;19.40;67.90;;;;;;5189678;28;20049;-74
2021/06/13 02:07:21;;;;;;;15.95;14.65;;;19.40;68.30;;;;;;5197020;28;20049;-74
2021/06/13 02:09:53;;;;;;;16.92;15.45;;;19.40;67.90;;;;;;5194181;28;20091;-75
2021/06/13 02:12:42;;;;;;;15.82;14.63;;;19.30;67.80;;;;;;5209390;28;20120;-76
2021/06/13 02:15:20;;;;;;;16.88;15.57;;;19.30;69.20;;;;;;5196748;28;20038;-75
2021/06/13 02:17:57;;;;;;;17.02;15.73;;;19.30;68.60;;;;;;5195476;28;20052;-74
2021/06/13 02:20:32;;;;;;;16.33;15.00;;;19.30;68.50;;;;;;5195680;28;20052;-75
2021/06/13 02:23:04;;;;;;;15.80;14.68;;;19.30;67.90;;;;;;5195024;28;20538;-74
2021/06/13 02:25:36;;;;;;;16.40;15.00;;;19.30;68.40;;;;;;5196722;28;20050;-74
2021/06/13 02:28:09;;;;;;;16.17;14.82;;;19.20;68.50;;;;;;5195658;28;20508;-74
2021/06/13 02:30:49;;;;;;;16.60;15.40;;;19.20;68.10;;;;;;5193142;28;20631;-74
2021/06/13 02:33:22;;;;;;;16.25;14.95;;;19.20;67.90;;;;;;5195397;28;20049;-75
2021/06/13 02:36:00;;;;;;;16.02;14.90;;;19.20;68.20;;;;;;5195933;28;20045;-73
2021/06/13 02:38:33;;;;;;;16.80;15.45;;;19.20;68.00;;;;;;5198651;28;20096;-74
2021/06/13 02:41:05;;;;;;;16.88;15.57;;;19.20;68.00;;;;;;5198696;28;20042;-73
2021/06/13 02:43:39;;;;;;;16.77;15.48;;;19.20;67.90;;;;;;5197370;28;20185;-74
2021/06/13 02:46:12;;;;;;;16.98;15.68;;;19.20;67.70;;;;;;5196363;28;20069;-75
2021/06/13 02:48:45;;;;;;;17.30;15.82;;;19.20;67.80;;;;;;5182181;28;20069;-74
2021/06/13 02:51:23;;;;;;;17.77;16.17;;;19.10;68.10;;;;;;5197421;28;20088;-73
2021/06/13 02:53:56;;;;;;;16.77;15.48;;;19.10;67.80;;;;;;5197838;28;20041;-73
2021/06/13 02:56:35;;;;;;;17.25;15.95;;;19.10;68.40;;;;;;5199165;28;20052;-72
2021/06/13 02:59:20;;;;;;;17.42;15.93;;;19.10;67.90;;;;;;5209127;28;20053;-73
2021/06/13 03:01:54;;;;;;;16.90;15.65;;;19.10;68.20;;;;;;5197342;28;20069;-73
2021/06/13 03:04:26;;;;;;;16.90;15.60;;;19.00;68.60;;;;;;5190395;28;20580;-73
2021/06/13 03:07:00;;;;;;;17.13;15.63;;;19.00;68.70;;;;;;5198162;28;20128;-72
2021/06/13 03:09:35;;;;;;;17.20;15.73;;;19.00;68.90;;;;;;5198874;28;20048;-71
2021/06/13 03:12:14;;;;;;;16.48;15.13;;;19.00;68.60;;;;;;5198700;28;20092;-75
2021/06/13 03:14:49;;;;;;;16.95;15.65;;;18.90;68.80;;;;;;5196935;28;20550;-72
2021/06/13 03:17:24;;;;;;;17.48;15.93;;;19.00;68.90;;;;;;5192979;28;20041;-72
2021/06/13 03:19:58;;;;;;;17.08;15.68;;;18.90;69.10;;;;;;5181101;28;20532;-72
2021/06/13 03:22:35;;;;;;;17.45;16.05;;;18.90;69.60;;;;;;5180632;28;20055;-72
2021/06/13 03:25:08;;;;;;;17.30;15.90;;;18.90;69.00;;;;;;5198235;28;20153;-71
2021/06/13 03:27:43;;;;;;;16.90;15.68;;;18.90;68.80;;;;;;5198738;28;20505;-72
2021/06/13 03:30:24;;;;;;;18.30;16.73;;;18.90;68.80;;;;;;5196354;28;20814;-72
2021/06/13 03:33:06;;;;;;;17.55;16.15;;;18.90;68.80;;;;;;5196681;28;20053;-72
2021/06/13 03:35:40;;;;;;;17.25;15.95;;;18.90;69.00;;;;;;5213680;28;20037;-72
2021/06/13 03:38:15;;;;;;;17.33;16.02;;;18.90;69.10;;;;;;5197414;28;20663;-72
2021/06/13 03:40:50;;;;;;;17.48;15.95;;;18.90;68.80;;;;;;5199427;28;20053;-72
2021/06/13 03:43:22;;;;;;;17.48;16.13;;;18.90;68.80;;;;;;5196746;28;20050;-72
2021/06/13 03:45:54;;;;;;;18.08;16.58;;;18.90;69.80;;;;;;5197910;28;20076;-73
2021/06/13 03:48:27;;;;;;;17.35;16.02;;;18.80;69.10;;;;;;5198339;28;20076;-72
2021/06/13 03:50:59;;;;;;;17.20;15.90;;;18.80;69.40;;;;;;5198507;28;20041;-72
2021/06/13 03:53:31;;;;;;;18.42;16.92;;;18.80;69.40;;;;;;5197735;28;20991;-72
2021/06/13 03:56:05;;;;;;;17.70;16.20;;;18.80;69.40;;;;;;5198124;28;20046;-72
2021/06/13 03:58:37;;;;;;;17.83;16.38;;;18.80;69.80;;;;;;5206885;28;20046;-72
2021/06/13 04:01:11;;;;;;;17.95;16.55;;;18.70;70.10;;;;;;5195437;28;20111;-73
2021/06/13 04:03:47;;;;;;;17.85;16.45;;;18.70;70.40;;;;;;5199129;28;20061;-73
2021/06/13 04:06:21;;;;;;;17.58;16.15;;;18.70;70.20;;;;;;5196776;28;20065;-73
2021/06/13 04:08:55;;;;;;;18.50;16.77;;;18.70;70.40;;;;;;5197251;28;20045;-73
2021/06/13 04:11:27;;;;;;;18.10;16.60;;;18.60;69.90;;;;;;5204893;28;20045;-74
2021/06/13 04:14:00;;;;;;;18.35;16.85;;;18.60;70.00;;;;;;5196492;28;20053;-73
2021/06/13 04:16:33;;;;;;;18.10;16.67;;;18.60;70.50;;;;;;5197585;28;20045;-74
2021/06/13 04:19:06;;;;;;;18.35;16.77;;;18.60;70.40;;;;;;5195467;28;20057;-76
2021/06/13 04:21:39;;;;;;;18.42;17.02;;;18.70;70.20;;;;;;5196959;28;20175;-74
2021/06/13 04:24:16;;;;;;;18.55;16.92;;;18.60;70.10;;;;;;5197244;28;20667;-74
2021/06/13 04:26:49;;;;;;;18.27;16.88;;;18.60;70.40;;;;;;5213786;28;20045;-74
2021/06/13 04:29:21;;;;;;;18.70;16.92;;;18.60;70.60;;;;;;5198017;28;20075;-74
2021/06/13 04:31:53;;;;;;;18.42;16.95;;;18.70;70.50;;;;;;5196410;28;20041;-73
2021/06/13 04:34:25;;;;;;;18.25;16.85;;;18.60;70.40;;;;;;5212528;28;20792;-74
2021/06/13 04:36:57;;;;;;;18.88;17.38;;;18.60;70.20;;;;;;5195564;28;20501;-74
2021/06/13 04:39:29;;;;;;;18.75;17.23;;;18.60;70.00;;;;;;5197743;28;20483;-74
2021/06/13 04:42:03;;;;;;;18.58;17.08;;;18.60;70.00;;;;;;5196244;28;20045;-74
2021/06/13 04:44:37;;;;;;;17.80;16.40;;;18.60;69.90;;;;;;5189339;28;20038;-74
2021/06/13 04:47:10;;;;;;;18.33;16.92;;;18.60;70.20;;;;;;5196300;28;20084;-74
2021/06/13 04:49:54;;;;;;;18.70;17.30;;;18.70;70.30;;;;;;5197321;28;20475;-74
2021/06/13 04:52:28;;;;;;;18.48;16.88;;;18.70;70.20;;;;;;5196776;28;20156;-74
2021/06/13 04:55:41;;;;;;;18.52;16.85;;;18.70;70.50;;;;;;5196977;28;20061;-74
2021/06/13 04:58:25;;;;;;;18.48;17.05;;;18.70;70.20;;;;;;5163657;28;20576;-75
2021/06/13 05:00:57;;;;;;;18.52;17.10;;;18.70;70.10;;;;;;5193122;28;20056;-74
2021/06/13 05:03:29;;;;;;;17.63;16.23;;;18.70;69.90;;;;;;5196730;28;20149;-73
2021/06/13 05:06:02;;;;;;;18.88;17.27;;;18.70;69.70;;;;;;5188874;28;20542;-75
2021/06/13 05:08:34;;;;;;;18.60;17.10;;;18.70;70.00;;;;;;5193255;28;20568;-74
2021/06/13 05:11:05;;;;;;;18.75;17.25;;;18.80;69.60;;;;;;5195424;28;20445;-74
2021/06/13 05:13:38;;;;;;;19.15;17.65;;;18.80;69.80;;;;;;5193533;28;20046;-73
2021/06/13 05:16:10;;;;;;;19.13;17.63;;;18.80;69.40;;;;;;5194397;28;20215;-73
2021/06/13 05:18:42;;;;;;;19.88;18.05;;;18.80;69.90;;;;;;5195909;28;20076;-72
2021/06/13 05:21:14;;;;;;;19.52;17.92;;;18.90;69.00;;;;;;5196375;28;20037;-71
2021/06/13 05:23:46;;;;;;;18.98;17.27;;;18.90;69.00;;;;;;5178653;28;20537;-73
2021/06/13 05:26:18;;;;;;;19.27;17.73;;;19.00;68.70;;;;;;5193394;28;20042;-73
2021/06/13 05:28:50;;;;;;;19.42;17.75;;;19.10;68.80;;;;;;5196830;28;20049;-73
2021/06/13 05:31:21;;;;;;;19.23;17.63;;;19.00;68.70;;;;;;5195641;28;20144;-73
2021/06/13 05:33:54;;;;;;;18.48;16.98;;;19.00;69.40;;;;;;5192181;28;20042;-73
2021/06/13 05:36:26;;;;;;;18.98;17.48;;;19.00;69.20;;;;;;5196160;28;20041;-73
2021/06/13 05:38:58;;;;;;;19.50;17.77;;;18.90;69.60;;;;;;5195344;28;20188;-72
2021/06/13 05:41:30;;;;;;;20.92;19.17;;;18.90;69.20;;;;;;5192907;28;20051;-71
2021/06/13 05:44:02;;;;;;;20.42;18.63;;;18.90;68.50;;;;;;5193852;28;20131;-73
2021/06/13 05:46:35;;;;;;;20.58;18.77;;;18.80;67.90;;;;;;5195941;28;20753;-72
2021/06/13 05:49:07;;;;;;;20.20;18.40;;;18.80;67.60;;;;;;5196452;28;20462;-72
2021/06/13 05:51:39;;;;;;;20.40;18.50;;;18.80;68.20;;;;;;5192817;28;20139;-73
2021/06/13 05:54:11;;;;;;;19.90;18.15;;;18.80;68.90;;;;;;5195872;28;20034;-73
2021/06/13 05:56:43;;;;;;;21.67;19.52;;;18.70;68.80;;;;;;5196100;28;20564;-73
2021/06/13 05:59:15;;;;;;;20.38;18.67;;;18.80;68.60;;;;;;5195404;28;20128;-72
2021/06/13 06:01:46;;;;;;;21.17;19.23;;;18.80;67.80;;;;;;5194432;28;20148;-73
2021/06/13 06:04:18;;;;;;;22.95;20.85;;;18.70;68.10;;;;;;5196980;28;20148;-72
2021/06/13 06:06:50;;;;;;;22.25;20.13;;;18.80;67.60;;;;;;5195836;28;20078;-73
2021/06/13 06:09:22;;;;;;;21.00;19.08;;;18.70;67.50;;;;;;5193624;28;20041;-74
2021/06/13 06:11:54;;;;;;;20.30;18.63;;;18.80;67.70;;;;;;5196745;28;20087;-72
2021/06/13 06:14:26;;;;;;;21.90;19.80;;;18.80;67.80;;;;;;5198394;28;20772;-73
2021/06/13 06:16:58;;;;;;;20.70;19.00;;;18.90;67.50;;;;;;5196826;28;20073;-72
2021/06/13 06:19:30;;;;;;;20.27;18.58;;;19.00;67.20;;;;;;5196391;28;20046;-72
2021/06/13 06:22:03;;;;;;;19.95;18.27;;;19.20;67.50;;;;;;5195054;28;20100;-72
2021/06/13 06:24:36;;;;;;;20.35;18.52;;;19.20;67.00;;;;;;5195269;28;20052;-73
2021/06/13 06:27:08;;;;;;;20.65;18.77;;;19.30;67.10;;;;;;5196256;28;20132;-72
2021/06/13 06:29:40;;;;;;;20.15;18.45;;;19.30;66.90;;;;;;5197071;28;20089;-73
2021/06/13 06:32:12;;;;;;;19.83;18.23;;;19.30;66.00;;;;;;5198921;28;20436;-72
2021/06/13 06:34:44;;;;;;;20.95;19.05;;;19.20;66.30;;;;;;5198211;28;20057;-72
2021/06/13 06:37:16;;;;;;;20.42;18.73;;;19.30;66.60;;;;;;5197024;28;20052;-72
2021/06/13 06:39:47;;;;;;;20.10;18.42;;;19.30;66.70;;;;;;5197612;28;20046;-72
2021/06/13 06:42:19;;;;;;;20.63;18.83;;;19.40;66.50;;;;;;5196596;28;20120;-72
2021/06/13 06:44:56;;;;;;;20.25;18.55;;;19.40;66.50;;;;;;5192151;28;20045;-73
2021/06/13 06:47:28;;;;;;;20.85;19.23;;;19.40;66.80;;;;;;5179291;28;20512;-72
2021/06/13 06:50:00;;;;;;;20.48;18.67;;;19.40;67.00;;;;;;5199640;28;20069;-72
2021/06/13 06:52:33;;;;;;;20.85;19.13;;;19.40;66.70;;;;;;5198626;28;20045;-72
2021/06/13 06:55:07;;;;;;;20.77;18.98;;;19.50;66.60;;;;;;5198409;28;20037;-72
2021/06/13 06:57:42;;;;;;;20.75;19.05;;;19.50;66.60;;;;;;5206139;28;20053;-72
2021/06/13 07:00:17;;;;;;;20.70;19.00;;;19.60;66.20;;;;;;5197211;28;20600;-72
2021/06/13 07:02:49;;;;;;;19.75;18.15;;;19.50;66.10;;;;;;5195225;28;20056;-72
2021/06/13 07:05:21;;;;;;;20.10;18.40;;;19.50;66.20;;;;;;5197407;28;20060;-72
2021/06/13 07:07:53;;;;;;;19.73;18.02;;;19.60;66.00;;;;;;5196621;28;20061;-71
2021/06/13 07:10:25;;;;;;;19.80;18.20;;;19.60;66.60;;;;;;5196983;28;20049;-71
2021/06/13 07:12:57;;;;;;;20.15;18.50;;;19.40;67.30;;;;;;5195299;28;20124;-70
2021/06/13 07:15:29;;;;;;;20.60;18.88;;;19.50;66.70;;;;;;5196840;28;20072;-72
2021/06/13 07:18:01;;;;;;;21.15;19.45;;;19.70;67.00;;;;;;5198478;28;20052;-72
2021/06/13 07:20:35;;;;;;;20.27;18.48;;;19.80;66.90;;;;;;5198435;28;20045;-72
2021/06/13 07:23:07;;;;;;;20.65;18.95;;;20.00;66.20;;;;;;5194764;28;20460;-72
2021/06/13 07:25:40;;;;;;;20.52;18.83;;;20.10;65.90;;;;;;5196234;28;20045;-72
2021/06/13 07:28:12;;;;;;;20.83;19.00;;;20.20;64.70;;;;;;5193655;28;20057;-72
2021/06/13 07:30:44;;;;;;;21.38;19.52;;;20.10;64.90;;;;;;5197096;28;20037;-72
2021/06/13 07:33:16;;;;;;;21.75;19.85;;;20.20;65.30;;;;;;5197157;28;20123;-72
2021/06/13 07:35:48;;;;;;;21.67;19.77;;;20.10;64.60;;;;;;5196956;28;20053;-71
2021/06/13 07:38:20;;;;;;;21.00;19.20;;;20.10;64.70;;;;;;5194807;28;20045;-71
2021/06/13 07:40:53;;;;;;;20.83;19.02;;;20.00;64.90;;;;;;5189700;28;20076;-71
2021/06/13 07:43:25;;;;;;;21.25;19.35;;;20.10;65.00;;;;;;5197924;28;20512;-71
2021/06/13 07:45:57;;;;;;;20.40;18.63;;;20.00;64.40;;;;;;5195780;28;20060;-71
2021/06/13 07:48:29;;;;;;;20.77;19.08;;;20.20;65.80;;;;;;5194994;28;20528;-71
2021/06/13 07:51:01;;;;;;;21.58;19.65;;;20.50;64.40;;;;;;5193768;28;20095;-71
2021/06/13 07:53:33;;;;;;;21.48;19.75;;;20.70;63.90;;;;;;5177336;28;20519;-73
2021/06/13 07:56:05;;;;;;;22.27;20.38;;;21.00;63.80;;;;;;5205742;28;20053;-73
2021/06/13 07:58:37;;;;;;;21.98;19.98;;;21.20;63.00;;;;;;5197706;28;20041;-71
2021/06/13 08:01:09;;;;;;;22.45;20.55;;;21.40;62.50;;;;;;5178756;28;20071;-71
2021/06/13 08:03:41;;;;;;;21.50;19.60;;;21.50;61.70;;;;;;5196750;28;20038;-72
2021/06/13 08:06:14;;;;;;;21.25;19.52;;;21.30;61.00;;;;;;5194200;28;20047;-71
2021/06/13 08:08:46;;;;;;;21.55;19.70;;;21.20;61.10;;;;;;5195777;28;20037;-72
2021/06/13 08:11:18;;;;;;;21.23;19.50;;;21.10;62.20;;;;;;5196169;28;20465;-72
2021/06/13 08:13:50;;;;;;;21.92;20.05;;;21.20;61.70;;;;;;5197813;28;20123;-73
2021/06/13 08:16:21;;;;;;;22.40;20.50;;;21.10;61.90;;;;;;5206494;28;20099;-72
2021/06/13 08:18:54;;;;;;;21.80;20.05;;;21.10;61.80;;;;;;5196118;28;20045;-72
2021/06/13 08:21:26;;;;;;;21.35;19.65;;;21.10;61.10;;;;;;5196214;28;20099;-72
2021/06/13 08:23:58;;;;;;;22.02;20.23;;;21.30;61.50;;;;;;5197664;28;20134;-73
2021/06/13 08:26:30;;;;;;;23.23;19.92;;;21.50;60.90;;;;;;5195205;28;20107;-73
2021/06/13 08:29:03;;;;;;;20.88;19.20;;;21.70;60.90;;;;;;5197535;28;20037;-73
2021/06/13 08:31:35;;;;;;;20.70;19.17;;;21.80;60.40;;;;;;5193251;28;20060;-72
2021/06/13 08:34:07;;;;;;;21.25;19.52;;;21.90;60.10;;;;;;5195064;28;20073;-72
2021/06/13 08:36:39;;;;;;;20.17;18.63;;;22.10;59.60;;;;;;5195581;28;20127;-72
2021/06/13 08:39:13;;;;;;;21.40;19.58;;;22.10;59.50;;;;;;5197731;28;20539;-72
2021/06/13 08:41:45;;;;;;;21.10;19.38;;;22.00;59.00;;;;;;5196766;28;20081;-72
2021/06/13 08:44:17;;;;;;;20.20;18.40;;;22.00;59.60;;;;;;5193409;28;21124;-72
2021/06/13 08:46:50;;;;;;;19.58;18.00;;;21.90;60.90;;;;;;5195158;28;20719;-71
2021/06/13 08:49:23;;;;;;;21.13;19.38;;;21.90;59.90;;;;;;5179986;28;20049;-72
2021/06/13 08:51:55;;;;;;;20.67;18.88;;;21.90;60.40;;;;;;5192608;28;20041;-72
2021/06/13 08:54:27;;;;;;;20.60;19.00;;;22.10;59.30;;;;;;5194918;28;20149;-71
2021/06/13 08:56:59;;;;;;;21.08;19.27;;;22.40;58.30;;;;;;5196113;28;20099;-71
2021/06/13 08:59:31;;;;;;;20.27;18.67;;;22.40;58.00;;;;;;5188490;28;20095;-73
2021/06/13 09:02:05;;;;;;;20.98;19.17;;;22.40;60.20;;;;;;5194068;28;20069;-72
2021/06/13 09:04:38;;;;;;;20.80;19.02;;;22.30;59.10;;;;;;5196433;28;20060;-73
2021/06/13 09:07:23;;;;;;;19.77;18.17;;;22.10;59.10;;;;;;5190861;28;20884;-71
2021/06/13 09:10:08;;;;;;;19.65;18.15;;;21.90;59.10;;;;;;5189916;28;20046;-71
2021/06/13 09:12:40;;;;;;;21.33;19.38;;;21.80;59.80;;;;;;5192678;28;20513;-71
2021/06/13 09:15:14;;;;;;;21.48;19.60;;;21.90;60.20;;;;;;5175461;28;20100;-72
2021/06/13 09:17:45;;;;;;;20.50;18.90;;;22.10;59.90;;;;;;5184519;28;20037;-72
2021/06/13 09:20:21;;;;;;;19.00;17.50;;;22.20;59.20;;;;;;5192660;28;20895;-72
2021/06/13 09:23:09;;;;;;;19.52;17.92;;;22.10;58.00;;;;;;5196663;28;20129;-73
2021/06/13 09:25:42;;;;;;;20.00;18.42;;;22.10;58.60;;;;;;5192802;28;20069;-71
2021/06/13 09:28:20;;;;;;;19.45;17.95;;;22.00;58.20;;;;;;5192009;28;20047;-72
2021/06/13 09:30:52;;;;;;;19.65;18.10;;;22.10;58.50;;;;;;5192946;28;20046;-71
2021/06/13 09:33:27;;;;;;;19.63;18.02;;;22.40;57.70;;;;;;5188965;28;20041;-72
2021/06/13 09:36:05;;;;;;;20.17;18.52;;;22.60;57.20;;;;;;5193995;28;20052;-72
2021/06/13 09:38:42;;;;;;;18.77;17.27;;;22.70;57.00;;;;;;5192243;28;20099;-72
2021/06/13 09:41:17;;;;;;;19.88;18.15;;;22.90;57.00;;;;;;5193891;28;20069;-73
2021/06/13 09:44:01;;;;;;;19.25;17.63;;;23.00;57.10;;;;;;5178057;28;20053;-71
2021/06/13 09:46:36;;;;;;;18.90;17.42;;;23.20;57.20;;;;;;5191963;28;20068;-72
2021/06/13 09:49:13;;;;;;;19.52;18.02;;;23.10;55.70;;;;;;5193853;28;20140;-71
2021/06/13 09:51:50;;;;;;;19.42;17.92;;;23.00;57.20;;;;;;5192738;28;20128;-71
2021/06/13 09:54:26;;;;;;;19.20;17.77;;;23.20;56.20;;;;;;5187186;28;20509;-73
2021/06/13 09:57:02;;;;;;;20.23;18.63;;;23.20;54.30;;;;;;5195066;28;20551;-71
2021/06/13 09:59:34;;;;;;;20.17;18.60;;;23.30;55.60;;;;;;5193757;28;20073;-73
2021/06/13 10:02:06;;;;;;;20.08;18.27;;;23.50;55.50;;;;;;5194682;28;20045;-72
2021/06/13 10:04:40;;;;;;;20.00;18.40;;;23.50;53.80;;;;;;5195745;28;20042;-72
2021/06/13 10:07:18;;;;;;;20.15;18.50;;;23.60;54.80;;;;;;5193911;28;20045;-72
2021/06/13 10:09:52;;;;;;;19.25;17.75;;;23.70;55.50;;;;;;5192931;28;20099;-72
2021/06/13 10:12:25;;;;;;;19.63;18.02;;;23.90;55.80;;;;;;5191550;28;20053;-73
2021/06/13 10:15:11;;;;;;;19.60;18.08;;;23.90;51.60;;;;;;5193790;28;20060;-73
2021/06/13 10:17:44;;;;;;;20.17;18.67;;;23.60;54.30;;;;;;5192356;28;20054;-73
2021/06/13 10:20:25;;;;;;;19.83;18.33;;;23.70;52.70;;;;;;5174478;28;20049;-73
2021/06/13 10:22:57;;;;;;;19.40;17.85;;;23.60;53.30;;;;;;5195672;28;20642;-73
2021/06/13 10:25:31;;;;;;;20.05;18.10;;;23.70;53.60;;;;;;5194622;28;20052;-74
2021/06/13 10:28:03;;;;;;;19.63;17.95;;;23.70;53.20;;;;;;5193530;28;20045;-72
2021/06/13 10:30:36;;;;;;;19.30;17.80;;;23.80;53.80;;;;;;5191309;28;20516;-74
2021/06/13 10:33:08;;;;;;;18.48;17.08;;;23.90;53.50;;;;;;5193773;28;20052;-73
2021/06/13 10:35:40;;;;;;;19.05;17.48;;;23.90;52.60;;;;;;5194440;28;20084;-74
2021/06/13 10:38:12;;;;;;;18.98;17.42;;;23.80;51.90;;;;;;5192102;28;20050;-74
2021/06/13 10:40:44;;;;;;;18.08;16.77;;;24.00;51.60;;;;;;5193148;28;20041;-73
2021/06/13 10:43:24;;;;;;;19.58;17.80;;;24.00;51.30;;;;;;5192087;28;20072;-75
2021/06/13 10:46:33;;;;;;;19.38;17.80;;;24.00;50.80;;;;;;5192862;28;20050;-72
2021/06/13 10:49:09;;;;;;;18.52;17.05;;;24.20;52.10;;;;;;5177570;28;20049;-72
2021/06/13 10:51:44;;;;;;;19.00;17.48;;;24.30;52.60;;;;;;5194561;28;20076;-74
2021/06/13 10:54:20;;;;;;;19.48;17.98;;;24.10;53.00;;;;;;5175530;28;20111;-74
2021/06/13 10:57:04;;;;;;;19.23;17.83;;;24.20;51.80;;;;;;5194205;28;20073;-74
2021/06/13 10:59:39;;;;;;;19.88;18.38;;;24.20;52.10;;;;;;5191165;28;20513;-74
2021/06/13 11:02:14;;;;;;;19.50;17.77;;;24.40;53.50;;;;;;5197347;28;20069;-74
2021/06/13 11:04:59;;;;;;;18.48;17.05;;;24.50;52.30;;;;;;5195985;28;20077;-73
2021/06/13 11:07:38;;;;;;;19.02;17.63;;;24.30;51.60;;;;;;5191034;28;20049;-74
2021/06/13 11:10:16;;;;;;;19.63;18.13;;;24.30;50.10;;;;;;5195133;28;20045;-74
2021/06/13 11:12:58;;;;;;;19.23;17.65;;;24.30;50.00;;;;;;5198326;28;20456;-72
2021/06/13 11:15:32;;;;;;;19.60;18.10;;;24.40;49.80;;;;;;5194225;28;20049;-75
2021/06/13 11:18:26;;;;;;;19.40;17.80;;;24.40;49.30;;;;;;5195194;28;20057;-73
2021/06/13 11:21:08;;;;;;;19.30;17.80;;;24.40;48.60;;;;;;5197272;28;20513;-72
2021/06/13 11:23:43;;;;;;;19.00;17.60;;;24.40;49.70;;;;;;5197440;28;20402;-73
2021/06/13 11:26:32;;;;;;;19.08;17.65;;;24.30;49.30;;;;;;5196068;28;20413;-72
2021/06/13 11:29:05;;;;;;;19.95;18.35;;;24.40;50.20;;;;;;5192838;28;20127;-73
2021/06/13 11:31:45;;;;;;;19.77;18.27;;;24.50;49.60;;;;;;5209897;28;20119;-74
2021/06/13 11:34:17;;;;;;;19.17;17.77;;;24.70;49.40;;;;;;5193527;28;20064;-73
2021/06/13 11:36:51;;;;;;;20.17;18.67;;;24.70;48.20;;;;;;5197140;28;20042;-73
2021/06/13 11:39:23;;;;;;;19.85;18.45;;;24.90;50.20;;;;;;5195527;28;20220;-73
2021/06/13 11:42:08;;;;;;;19.63;18.23;;;25.10;49.80;;;;;;5195314;28;20106;-74
2021/06/13 11:44:42;;;;;;;20.55;18.95;;;25.20;47.60;;;;;;5213742;28;20049;-73
2021/06/13 11:47:40;;;;;;;19.50;18.00;;;25.20;46.70;;;;;;5195892;28;20042;-73
2021/06/13 11:50:13;;;;;;;19.67;18.27;;;25.20;46.10;;;;;;5197140;28;20062;-74
2021/06/13 11:52:52;;;;;;;20.20;18.70;;;25.30;47.10;;;;;;5197681;28;20128;-74
2021/06/13 11:55:53;;;;;;;23.35;21.23;;;25.30;47.40;;;;;;5197670;28;20116;-74
2021/06/13 11:58:25;;;;;;;20.38;18.73;;;25.30;45.60;;;;;;5198426;28;20045;-75
2021/06/13 12:00:59;;;;;;;20.20;18.60;;;25.30;45.20;;;;;;5197418;28;20635;-73
2021/06/13 12:03:32;;;;;;;19.20;17.70;;;25.40;47.80;;;;;;5197457;28;20094;-75
2021/06/13 12:06:07;;;;;;;19.98;18.50;;;25.60;46.30;;;;;;5195129;28;20080;-75
2021/06/13 12:08:40;;;;;;;19.92;18.33;;;25.60;45.50;;;;;;5196260;28;20693;-74
2021/06/13 12:11:51;;;;;;;19.25;17.85;;;25.70;46.10;;;;;;5193903;28;20050;-74
2021/06/13 12:14:36;;;;;;;19.15;17.75;;;25.80;45.70;;;;;;5196191;28;20129;-74
2021/06/13 12:17:23;;;;;;;19.65;17.80;;;25.70;43.70;;;;;;5194125;28;20425;-74
2021/06/13 12:19:59;;;;;;;19.58;18.17;;;25.80;43.20;;;;;;5197968;28;20421;-74
2021/06/13 12:22:52;;;;;;;19.60;18.10;;;25.70;42.30;;;;;;5197007;28;20127;-73
2021/06/13 12:28:17;;;;;;;19.40;18.00;;;25.90;42.30;;;;;;5195824;28;20715;-73
2021/06/13 12:30:51;;;;;;;19.33;17.92;;;26.00;44.80;;;;;;5197142;28;20096;-74
2021/06/13 12:33:26;;;;;;;19.20;17.80;;;26.20;46.20;;;;;;5195791;28;20126;-73
2021/06/13 12:35:57;;;;;;;19.40;18.00;;;26.20;44.60;;;;;;5197612;28;20045;-73
2021/06/13 12:38:34;;;;;;;19.67;18.27;;;26.30;43.20;;;;;;5196648;28;20072;-74
2021/06/13 12:41:06;;;;;;;19.35;17.92;;;26.30;41.90;;;;;;5192694;28;20069;-73
2021/06/13 12:43:40;;;;;;;19.63;18.23;;;26.30;44.50;;;;;;5193296;28;20049;-73
2021/06/13 12:46:14;;;;;;;19.73;18.25;;;26.30;44.00;;;;;;5191159;28;20457;-73
2021/06/13 12:48:55;;;;;;;19.98;18.38;;;26.30;41.40;;;;;;5195365;28;20056;-73
2021/06/13 12:51:31;;;;;;;19.45;18.05;;;26.20;42.50;;;;;;5194512;28;20135;-73
2021/06/13 12:54:14;;;;;;;19.42;17.98;;;26.20;44.10;;;;;;5196052;28;20049;-73
2021/06/13 12:56:46;;;;;;;20.10;18.70;;;26.30;41.20;;;;;;5195103;28;20123;-74
2021/06/13 12:59:18;;;;;;;19.77;18.38;;;26.30;42.60;;;;;;5195020;28;20474;-74
2021/06/13 13:01:50;;;;;;;19.85;18.35;;;26.40;42.20;;;;;;5192670;28;20073;-73
2021/06/13 13:04:41;;;;;;;20.20;18.58;;;26.50;42.90;;;;;;5193323;28;20484;-73
2021/06/13 13:07:34;;;;;;;19.88;18.27;;;26.50;42.70;;;;;;5195473;28;20048;-70
2021/06/13 13:10:09;;;;;;;19.58;18.17;;;26.60;42.30;;;;;;5175739;28;20086;-74